createdAt,value
2022-12-14T00:01:10.189Z,100627.94
2022-12-14T00:03:33.871Z,100624.22
2022-12-14T00:05:57.498Z,100613.84
2022-12-14T00:08:22.615Z,100624.16
2022-12-14T00:10:46.515Z,100623.47
2022-12-14T00:13:15.918Z,100622.63
2022-12-14T00:15:39.812Z,100613.78
2022-12-14T00:18:03.660Z,100619.97
2022-12-14T00:20:28.114Z,100612.06
2022-12-14T00:22:51.841Z,100612.13
2022-12-14T00:25:16.876Z,100610.28
2022-12-14T00:27:44.838Z,100603.50
2022-12-14T00:30:10.032Z,100599.22
2022-12-14T00:32:35.255Z,100603.50
2022-12-14T00:35:01.477Z,100596.56
2022-12-14T00:37:25.112Z,100595.81
2022-12-14T00:39:48.870Z,100586.16
2022-12-14T00:42:13.896Z,100592.34
2022-12-14T00:44:37.457Z,100596.69
2022-12-14T00:47:02.476Z,100587.88
2022-12-14T00:49:26.055Z,100588.03
2022-12-14T00:51:49.899Z,100586.97
2022-12-14T00:54:13.483Z,100588.66
2022-12-14T00:56:37.210Z,100585.44
2022-12-14T00:59:02.240Z,100581.91
2022-12-14T01:01:26.135Z,100587.25
2022-12-14T01:03:50.355Z,100591.34
2022-12-14T01:06:20.488Z,100585.31
2022-12-14T01:08:44.152Z,100581.84
2022-12-14T01:11:08.794Z,100575.00
2022-12-14T01:13:32.499Z,100578.38
2022-12-14T01:16:05.058Z,100576.66
2022-12-14T01:18:28.725Z,100575.25
2022-12-14T01:20:52.286Z,100576.03
2022-12-14T01:23:16.526Z,100573.19
2022-12-14T01:25:40.136Z,100570.63
2022-12-14T01:28:03.940Z,100575.16
2022-12-14T01:30:27.764Z,100566.41
2022-12-14T01:32:52.812Z,100572.59
2022-12-14T01:35:17.393Z,100569.06
2022-12-14T01:37:41.161Z,100564.69
2022-12-14T01:40:05.340Z,100560.38
2022-12-14T01:42:29.011Z,100557.94
2022-12-14T01:44:59.258Z,100560.38
2022-12-14T01:47:38.379Z,100561.09
2022-12-14T01:50:10.596Z,100555.06
2022-12-14T01:52:40.577Z,100555.06
2022-12-14T01:55:07.926Z,100555.75
2022-12-14T01:57:37.095Z,100557.75
2022-12-14T02:00:06.960Z,100552.66
2022-12-14T02:02:32.891Z,100550.00
2022-12-14T02:05:03.326Z,100549.13
2022-12-14T02:07:30.014Z,100548.09
2022-12-14T02:09:54.257Z,100549.75
2022-12-14T02:12:22.136Z,100546.28
2022-12-14T02:14:46.237Z,100549.72
2022-12-14T02:17:13.068Z,100544.50
2022-12-14T02:19:37.973Z,100554.91
2022-12-14T02:22:34.292Z,100544.59
2022-12-14T02:25:22.100Z,100556.72
2022-12-14T02:28:33.038Z,100547.19
2022-12-14T02:31:04.658Z,100549.09
2022-12-14T02:33:44.107Z,100540.31
2022-12-14T02:36:18.173Z,100536.09
2022-12-14T02:38:53.586Z,100543.75
2022-12-14T02:41:25.351Z,100534.41
2022-12-14T02:43:58.988Z,100543.94
2022-12-14T02:46:30.584Z,100541.13
2022-12-14T02:49:03.304Z,100536.06
2022-12-14T02:51:41.134Z,100536.06
2022-12-14T02:54:11.188Z,100536.19
2022-12-14T02:56:42.755Z,100545.69
2022-12-14T02:59:10.241Z,100536.16
2022-12-14T03:01:38.244Z,100538.84
2022-12-14T03:04:03.599Z,100531.97
2022-12-14T03:06:27.628Z,100527.63
2022-12-14T03:08:51.557Z,100530.94
2022-12-14T03:11:22.220Z,100528.34
2022-12-14T03:13:51.595Z,100528.44
2022-12-14T03:16:21.319Z,100527.63
2022-12-14T03:18:51.542Z,100524.13
2022-12-14T03:21:19.741Z,100524.94
2022-12-14T03:23:46.983Z,100518.75
2022-12-14T03:26:17.235Z,100515.34
2022-12-14T03:28:48.240Z,100508.31
2022-12-14T03:31:16.644Z,100511.09
2022-12-14T03:33:42.811Z,100506.56
2022-12-14T03:36:14.692Z,100509.25
2022-12-14T03:38:43.050Z,100510.94
2022-12-14T03:41:20.313Z,100499.72
2022-12-14T03:43:59.392Z,100505.63
2022-12-14T03:46:33.694Z,100507.47
2022-12-14T03:49:05.849Z,100506.78
2022-12-14T03:51:40.407Z,100495.19
2022-12-14T03:54:13.562Z,100493.38
2022-12-14T03:56:51.156Z,100497.94
2022-12-14T03:59:24.816Z,100489.09
2022-12-14T04:01:55.792Z,100490.97
2022-12-14T04:04:25.389Z,100488.22
2022-12-14T04:07:01.277Z,100480.50
2022-12-14T04:09:34.521Z,100480.50
2022-12-14T04:12:21.728Z,100485.78
2022-12-14T04:15:23.306Z,100477.16
2022-12-14T04:18:12.018Z,100476.22
2022-12-14T04:20:44.678Z,100486.78
2022-12-14T04:23:37.904Z,100470.94
2022-12-14T04:26:05.202Z,100470.13
2022-12-14T04:28:52.483Z,100466.69
2022-12-14T04:31:22.138Z,100468.31
2022-12-14T04:33:55.984Z,100465.00
2022-12-14T04:36:25.581Z,100453.00
2022-12-14T04:38:56.738Z,100452.19
2022-12-14T04:41:26.189Z,100447.00
2022-12-14T04:43:52.297Z,100446.03
2022-12-14T04:46:20.901Z,100454.66
2022-12-14T04:48:51.993Z,100445.84
2022-12-14T04:51:25.803Z,100441.63
2022-12-14T04:53:55.929Z,100434.78
2022-12-14T04:56:26.139Z,100416.31
2022-12-14T04:58:50.365Z,100422.88
2022-12-14T05:01:32.674Z,100419.09
2022-12-14T05:04:09.612Z,100417.53
2022-12-14T05:06:45.584Z,100410.47
2022-12-14T05:09:19.100Z,100418.22
2022-12-14T05:11:53.506Z,100412.19
2022-12-14T05:14:25.358Z,100413.22
2022-12-14T05:16:50.424Z,100417.38
2022-12-14T05:19:15.960Z,100407.75
2022-12-14T05:21:48.421Z,100405.03
2022-12-14T05:24:13.477Z,100402.34
2022-12-14T05:26:37.354Z,100393.69
2022-12-14T05:29:01.020Z,100396.34
2022-12-14T05:31:25.042Z,100388.28
2022-12-14T05:33:48.695Z,100394.38
2022-12-14T05:36:12.321Z,100386.25
2022-12-14T05:38:35.986Z,100384.75
2022-12-14T05:41:01.003Z,100379.47
2022-12-14T05:43:25.027Z,100377.97
2022-12-14T05:45:48.838Z,100378.84
2022-12-14T05:48:12.514Z,100372.59
2022-12-14T05:50:36.087Z,100381.97
2022-12-14T05:52:59.758Z,100367.31
2022-12-14T05:55:23.730Z,100375.81
2022-12-14T05:57:48.867Z,100369.84
2022-12-14T06:00:13.928Z,100355.75
2022-12-14T06:02:37.724Z,100357.44
2022-12-14T06:05:01.315Z,100361.72
2022-12-14T06:07:27.985Z,100356.66
2022-12-14T06:09:52.024Z,100356.56
2022-12-14T06:12:15.645Z,100361.63
2022-12-14T06:14:40.676Z,100356.41
2022-12-14T06:17:04.427Z,100354.69
2022-12-14T06:19:28.099Z,100349.50
2022-12-14T06:21:51.725Z,100346.88
2022-12-14T06:24:15.843Z,100342.53
2022-12-14T06:26:41.002Z,100350.38
2022-12-14T06:29:05.791Z,100343.25
2022-12-14T06:31:33.364Z,100346.75
2022-12-14T06:33:59.934Z,100343.44
2022-12-14T06:36:26.844Z,100345.94
2022-12-14T06:38:50.677Z,100339.06
2022-12-14T06:41:14.510Z,100341.81
2022-12-14T06:43:38.089Z,100337.53
2022-12-14T06:46:01.826Z,100330.34
2022-12-14T06:48:26.892Z,100334.69
2022-12-14T06:50:50.920Z,100322.63
2022-12-14T06:53:15.045Z,100320.06
2022-12-14T06:55:38.777Z,100324.75
2022-12-14T06:58:02.409Z,100326.34
2022-12-14T07:00:26.752Z,100328.97
2022-12-14T07:02:51.187Z,100330.72
2022-12-14T07:05:17.034Z,100329.03
2022-12-14T07:07:40.691Z,100323.78
2022-12-14T07:10:05.952Z,100317.84
2022-12-14T07:12:29.650Z,100318.72
2022-12-14T07:14:53.301Z,100314.44
2022-12-14T07:17:16.896Z,100320.66
2022-12-14T07:19:40.563Z,100311.84
2022-12-14T07:22:05.666Z,100315.47
2022-12-14T07:24:29.338Z,100313.78
2022-12-14T07:26:53.648Z,100310.38
2022-12-14T07:29:17.638Z,100306.72
2022-12-14T07:31:41.280Z,100314.72
2022-12-14T07:34:05.008Z,100312.84
2022-12-14T07:36:30.688Z,100304.00
2022-12-14T07:38:56.805Z,100308.34
2022-12-14T07:41:25.586Z,100306.81
2022-12-14T07:43:49.638Z,100298.81
2022-12-14T07:46:16.361Z,100295.41
2022-12-14T07:48:40.512Z,100301.53
2022-12-14T07:51:07.369Z,100290.28
2022-12-14T07:53:31.384Z,100294.56
2022-12-14T07:55:56.633Z,100298.81
2022-12-14T07:58:20.381Z,100295.22
2022-12-14T08:00:43.960Z,100293.47
2022-12-14T08:03:07.615Z,100295.41
2022-12-14T08:05:31.228Z,100288.53
2022-12-14T08:07:54.965Z,100292.59
2022-12-14T08:10:18.807Z,100289.84
2022-12-14T08:12:43.821Z,100294.34
2022-12-14T08:15:09.759Z,100290.59
2022-12-14T08:17:34.105Z,100289.19
2022-12-14T08:19:57.726Z,100288.88
2022-12-14T08:22:21.422Z,100287.94
2022-12-14T08:24:49.356Z,100284.47
2022-12-14T08:27:13.411Z,100283.53
2022-12-14T08:29:38.522Z,100290.56
2022-12-14T08:32:02.644Z,100288.56
2022-12-14T08:34:26.216Z,100295.38
2022-12-14T08:36:50.404Z,100285.63
2022-12-14T08:39:14.515Z,100283.72
2022-12-14T08:41:38.831Z,100279.22
2022-12-14T08:44:04.366Z,100270.63
2022-12-14T08:46:32.349Z,100273.16
2022-12-14T08:48:57.156Z,100274.59
2022-12-14T08:51:21.429Z,100270.22
2022-12-14T08:53:47.687Z,100267.47
2022-12-14T08:56:14.364Z,100263.19
2022-12-14T08:58:38.224Z,100264.41
2022-12-14T09:01:04.499Z,100261.88
2022-12-14T09:03:30.107Z,100263.47
2022-12-14T09:05:54.187Z,100260.53
2022-12-14T09:08:18.092Z,100256.13
2022-12-14T09:10:41.742Z,100254.25
2022-12-14T09:13:05.371Z,100270.25
2022-12-14T09:15:29.077Z,100268.28
2022-12-14T09:17:52.714Z,100263.84
2022-12-14T09:20:19.078Z,100262.00
2022-12-14T09:22:42.683Z,100266.00
2022-12-14T09:25:07.413Z,100252.06
2022-12-14T09:27:31.047Z,100252.66
2022-12-14T09:29:54.760Z,100240.09
2022-12-14T09:32:18.429Z,100242.19
2022-12-14T09:34:42.145Z,100243.81
2022-12-14T09:37:07.919Z,100231.78
2022-12-14T09:39:31.777Z,100236.75
2022-12-14T09:42:08.924Z,100229.53
2022-12-14T09:44:51.734Z,100227.66
2022-12-14T09:47:20.724Z,100215.56
2022-12-14T09:49:49.527Z,100221.25
2022-12-14T09:52:19.032Z,100217.47
2022-12-14T09:54:44.817Z,100212.13
2022-12-14T09:57:22.738Z,100211.22
2022-12-14T09:59:46.565Z,100205.97
2022-12-14T10:02:42.200Z,100213.84
2022-12-14T10:05:24.885Z,100203.34
2022-12-14T10:08:01.842Z,100200.63
2022-12-14T10:10:30.351Z,100204.59
2022-12-14T10:13:05.167Z,100197.72
2022-12-14T10:15:34.308Z,100187.41
2022-12-14T10:18:59.107Z,100181.44
2022-12-14T10:21:25.214Z,100173.84
2022-12-14T10:23:57.750Z,100177.81
2022-12-14T10:26:24.559Z,100170.75
2022-12-14T10:28:59.273Z,100171.28
2022-12-14T10:31:34.779Z,100161.88
2022-12-14T10:34:12.343Z,100161.38
2022-12-14T10:36:51.798Z,100159.38
2022-12-14T10:39:26.370Z,100154.25
2022-12-14T10:41:58.684Z,100156.94
2022-12-14T10:44:29.689Z,100157.63
2022-12-14T10:47:00.224Z,100159.22
2022-12-14T10:49:30.017Z,100157.66
2022-12-14T10:52:01.625Z,100157.22
2022-12-14T10:54:34.334Z,100155.63
2022-12-14T10:56:58.416Z,100157.50
2022-12-14T10:59:39.834Z,100149.16
2022-12-14T11:02:15.559Z,100151.03
2022-12-14T11:04:46.708Z,100145.38
2022-12-14T11:07:15.023Z,100146.00
2022-12-14T11:09:41.004Z,100150.78
2022-12-14T11:12:12.718Z,100134.88
2022-12-14T11:14:38.233Z,100130.94
2022-12-14T11:17:02.046Z,100125.09
2022-12-14T11:19:27.385Z,100118.75
2022-12-14T11:21:52.677Z,100111.66
2022-12-14T11:24:25.348Z,100113.94
2022-12-14T11:26:51.303Z,100102.97
2022-12-14T11:29:22.676Z,100092.72
2022-12-14T11:31:48.465Z,100095.00
2022-12-14T11:34:23.855Z,100089.53
2022-12-14T11:36:47.696Z,100094.69
2022-12-14T11:39:23.680Z,100095.63
2022-12-14T11:41:51.921Z,100091.53
2022-12-14T11:44:26.206Z,100094.44
2022-12-14T11:46:56.527Z,100094.91
2022-12-14T11:49:25.735Z,100093.63
2022-12-14T11:52:01.550Z,100089.16
2022-12-14T11:54:25.353Z,100092.34
2022-12-14T11:56:53.706Z,100088.56
2022-12-14T11:59:18.628Z,100094.28
2022-12-14T12:01:42.568Z,100090.00
2022-12-14T12:04:14.261Z,100086.06
2022-12-14T12:06:38.017Z,100088.03
2022-12-14T12:09:03.784Z,100082.38
2022-12-14T12:11:32.764Z,100078.16
2022-12-14T12:14:02.728Z,100080.91
2022-12-14T12:16:29.823Z,100079.28
2022-12-14T12:18:58.605Z,100080.59
2022-12-14T12:21:28.059Z,100073.56
2022-12-14T12:23:59.372Z,100071.00
2022-12-14T12:26:29.306Z,100072.72
2022-12-14T12:28:58.643Z,100071.06
2022-12-14T12:31:32.978Z,100059.94
2022-12-14T12:34:01.571Z,100060.56
2022-12-14T12:36:25.974Z,100057.88
2022-12-14T12:39:05.308Z,100057.84
2022-12-14T12:41:47.801Z,100062.38
2022-12-14T12:44:25.928Z,100070.06
2022-12-14T12:49:46.106Z,100057.94
2022-12-14T12:52:21.419Z,100055.84
2022-12-14T12:54:57.117Z,100054.78
2022-12-14T12:57:21.958Z,100057.41
2022-12-14T12:59:50.209Z,100053.47
2022-12-14T13:02:32.991Z,100049.25
2022-12-14T13:05:06.967Z,100045.44
2022-12-14T13:07:46.352Z,100039.06
2022-12-14T13:10:20.292Z,100040.16
2022-12-14T13:12:48.911Z,100036.75
2022-12-14T13:15:22.059Z,100033.72
2022-12-14T13:17:52.463Z,100031.31
2022-12-14T13:20:23.999Z,100026.53
2022-12-14T13:22:49.646Z,100032.91
2022-12-14T13:25:18.587Z,100025.47
2022-12-14T13:28:19.437Z,100035.03
2022-12-14T13:31:06.635Z,100028.97
2022-12-14T13:34:02.829Z,100025.28
2022-12-14T13:36:50.150Z,100021.06
2022-12-14T13:39:57.404Z,100024.69
2022-12-14T13:42:31.860Z,100026.34
2022-12-14T13:45:01.404Z,100014.34
2022-12-14T13:47:39.938Z,100015.28
2022-12-14T13:52:52.093Z,100010.41
2022-12-14T13:55:32.038Z,100019.47
2022-12-14T13:58:08.053Z,100021.88
2022-12-14T14:00:54.145Z,100010.53
2022-12-14T14:03:54.412Z,100007.97
2022-12-14T14:06:40.008Z,100016.19
2022-12-14T14:09:48.305Z,100013.00
2022-12-14T14:12:45.074Z,100011.34
2022-12-14T14:15:38.440Z,100011.00
2022-12-14T14:18:21.457Z,100004.50
2022-12-14T14:20:48.286Z,100003.22
2022-12-14T14:23:38.025Z,100002.78
2022-12-14T14:26:28.068Z,99999.09
2022-12-14T14:29:25.260Z,99996.06
2022-12-14T14:31:55.725Z,99990.84
2022-12-14T14:34:26.753Z,99987.84
2022-12-14T14:36:51.936Z,99985.78
2022-12-14T14:42:25.027Z,99982.75
2022-12-14T14:44:54.705Z,99982.88
2022-12-14T14:47:26.799Z,99979.72
2022-12-14T14:49:55.977Z,99978.28
2022-12-14T14:53:08.585Z,99971.09
2022-12-14T14:55:59.363Z,99975.34
2022-12-14T14:58:33.413Z,99979.78
2022-12-14T15:01:10.812Z,99977.72
2022-12-14T15:03:46.479Z,99983.88
2022-12-14T15:06:15.786Z,99966.69
2022-12-14T15:08:42.244Z,99970.16
2022-12-14T15:11:18.266Z,99958.81
2022-12-14T15:13:49.032Z,99957.13
2022-12-14T15:16:25.741Z,99957.97
2022-12-14T15:18:49.414Z,99964.97
2022-12-14T15:21:15.647Z,99958.41
2022-12-14T15:23:43.739Z,99964.31
2022-12-14T15:26:17.628Z,99961.28
2022-12-14T15:28:41.512Z,99958.94
2022-12-14T15:31:06.080Z,99964.91
2022-12-14T15:33:35.038Z,99964.97
2022-12-14T15:36:06.075Z,99964.25
2022-12-14T15:38:34.556Z,99968.69
2022-12-14T15:40:59.950Z,99964.34
2022-12-14T15:43:26.869Z,99965.25
2022-12-14T15:45:54.283Z,99966.94
2022-12-14T15:48:24.715Z,99964.59
2022-12-14T15:50:52.784Z,99961.16
2022-12-14T15:53:26.213Z,99958.50
2022-12-14T15:55:59.839Z,99952.16
2022-12-14T15:58:31.949Z,99949.63
2022-12-14T16:00:59.765Z,99948.56
2022-12-14T16:03:32.801Z,99954.81
2022-12-14T16:05:57.949Z,99958.34
2022-12-14T16:08:22.474Z,99960.41
2022-12-14T16:10:47.700Z,99958.22
2022-12-14T16:13:21.905Z,99958.06
2022-12-14T16:15:47.303Z,99959.63
2022-12-14T16:18:15.580Z,99956.41
2022-12-14T16:20:40.189Z,99953.28
2022-12-14T16:23:07.669Z,99948.75
2022-12-14T16:25:33.449Z,99951.97
2022-12-14T16:27:57.117Z,99947.81
2022-12-14T16:30:30.754Z,99954.75
2022-12-14T16:33:17.366Z,99967.22
2022-12-14T16:35:41.208Z,99964.00
2022-12-14T16:38:10.146Z,99967.44
2022-12-14T16:40:37.189Z,99967.44
2022-12-14T16:43:01.146Z,99965.22
2022-12-14T16:46:13.202Z,99966.75
2022-12-14T16:48:45.158Z,99962.41
2022-12-14T16:51:58.111Z,99964.25
2022-12-14T16:54:27.268Z,99964.00
2022-12-14T16:56:59.174Z,99970.22
2022-12-14T16:59:28.454Z,99974.53
2022-12-14T17:01:52.679Z,99966.66
2022-12-14T17:04:20.376Z,99967.88
2022-12-14T17:06:50.433Z,99971.22
2022-12-14T17:09:20.371Z,99968.13
2022-12-14T17:11:44.654Z,99970.75
2022-12-14T17:14:08.295Z,99970.25
2022-12-14T17:16:32.075Z,99962.72
2022-12-14T17:18:55.773Z,99960.66
2022-12-14T17:21:26.572Z,99956.38
2022-12-14T17:23:50.632Z,99964.47
2022-12-14T17:26:22.192Z,99961.06
2022-12-14T17:28:45.910Z,99971.47
2022-12-14T17:31:12.595Z,99967.94
2022-12-14T17:33:36.429Z,99968.78
2022-12-14T17:36:00.015Z,99964.88
2022-12-14T17:38:25.550Z,99967.56
2022-12-14T17:40:51.391Z,99967.63
2022-12-14T17:43:20.136Z,99971.06
2022-12-14T17:45:44.190Z,99966.88
2022-12-14T17:48:11.591Z,99963.72
2022-12-14T17:50:35.328Z,99963.81
2022-12-14T17:52:59.385Z,99956.47
2022-12-14T17:55:27.320Z,99965.41
2022-12-14T17:57:52.197Z,99962.16
2022-12-14T18:00:38.541Z,99965.53
2022-12-14T18:03:02.685Z,99954.28
2022-12-14T18:05:26.462Z,99952.56
2022-12-14T18:07:50.405Z,99948.16
2022-12-14T18:10:17.723Z,99953.28
2022-12-14T18:12:43.213Z,99957.09
2022-12-14T18:15:17.414Z,99960.00
2022-12-14T18:17:41.126Z,99957.03
2022-12-14T18:20:05.073Z,99957.28
2022-12-14T18:22:28.809Z,99975.94
2022-12-14T18:24:52.376Z,99960.00
2022-12-14T18:27:17.052Z,99964.28
2022-12-14T18:29:42.130Z,99970.34
2022-12-14T18:32:06.705Z,99968.72
2022-12-14T18:34:30.255Z,99969.50
2022-12-14T18:36:54.320Z,99976.78
2022-12-14T18:39:18.283Z,99976.16
2022-12-14T18:41:42.004Z,99975.34
2022-12-14T18:44:06.010Z,99979.84
2022-12-14T18:46:31.504Z,99979.84
2022-12-14T18:48:55.670Z,99965.78
2022-12-14T18:51:23.541Z,99969.03
2022-12-14T18:53:47.283Z,99970.75
2022-12-14T18:56:12.849Z,99977.16
2022-12-14T18:58:36.470Z,99968.59
2022-12-14T19:01:01.372Z,99968.19
2022-12-14T19:03:29.300Z,99972.81
2022-12-14T19:05:53.855Z,99978.41
2022-12-14T19:08:17.539Z,99982.03
2022-12-14T19:10:44.161Z,99978.41
2022-12-14T19:13:09.655Z,99970.22
2022-12-14T19:15:36.184Z,99971.72
2022-12-14T19:18:00.533Z,99973.50
2022-12-14T19:20:27.065Z,99973.69
2022-12-14T19:22:51.602Z,99966.66
2022-12-14T19:25:15.792Z,99968.28
2022-12-14T19:30:25.128Z,99973.78
2022-12-14T19:32:48.691Z,99976.41
2022-12-14T19:35:12.878Z,99982.50
2022-12-14T19:37:37.918Z,99980.72
2022-12-14T19:40:02.557Z,99977.19
2022-12-14T19:42:26.610Z,99975.81
2022-12-14T19:44:50.283Z,99978.28
2022-12-14T19:47:14.185Z,99985.44
2022-12-14T19:49:37.976Z,99986.19
2022-12-14T19:52:01.629Z,99991.66
2022-12-14T19:54:27.906Z,99994.63
2022-12-14T19:56:52.129Z,99988.16
2022-12-14T19:59:15.749Z,99989.16
2022-12-14T20:01:44.675Z,99991.59
2022-12-14T20:04:11.545Z,99991.75
2022-12-14T20:06:35.429Z,99991.66
2022-12-14T20:08:59.860Z,99992.44
2022-12-14T20:11:25.376Z,99993.06
2022-12-14T20:13:54.701Z,99989.25
2022-12-14T20:16:22.140Z,99990.19
2022-12-14T20:18:46.411Z,99994.88
2022-12-14T20:21:15.009Z,99990.59
2022-12-14T20:23:42.629Z,99991.22
2022-12-14T20:26:10.532Z,99992.13
2022-12-14T20:28:35.778Z,99995.66
2022-12-14T20:31:00.602Z,99985.31
2022-12-14T20:33:29.914Z,99994.88
2022-12-14T20:35:54.708Z,99992.25
2022-12-14T20:38:18.365Z,99995.13
2022-12-14T20:40:41.993Z,100007.38
2022-12-14T20:43:05.650Z,100004.72
2022-12-14T20:45:30.731Z,100006.53
2022-12-14T20:47:55.487Z,100006.53
2022-12-14T20:50:19.342Z,100011.81
2022-12-14T20:52:42.966Z,100008.50
2022-12-14T20:55:07.326Z,100007.56
2022-12-14T20:57:33.163Z,100000.78
2022-12-14T20:59:59.339Z,99998.16
2022-12-14T21:02:25.806Z,100011.31
2022-12-14T21:04:49.551Z,99999.31
2022-12-14T21:07:13.187Z,100009.81
2022-12-14T21:09:38.112Z,100006.50
2022-12-14T21:12:19.164Z,100008.13
2022-12-14T21:14:44.803Z,100009.91
2022-12-14T21:17:08.398Z,99998.72
2022-12-14T21:19:35.948Z,99993.41
2022-12-14T21:21:59.784Z,100002.25
2022-12-14T21:25:00.403Z,99999.06
2022-12-14T21:27:10.225Z,100008.38
2022-12-14T21:29:34.220Z,100002.28
2022-12-14T21:31:58.038Z,100006.66
2022-12-14T21:34:23.855Z,100009.31
2022-12-14T21:36:49.458Z,100023.59
2022-12-14T21:39:15.067Z,100011.28
2022-12-14T21:41:55.960Z,100018.94
2022-12-14T21:44:19.735Z,100012.22
2022-12-14T21:46:43.337Z,100013.81
2022-12-14T21:49:07.618Z,100012.09
2022-12-14T21:51:31.359Z,100016.50
2022-12-14T21:54:00.724Z,100012.88
2022-12-14T21:56:41.478Z,100011.41
2022-12-14T21:59:05.189Z,100005.94
2022-12-14T22:01:28.927Z,100008.69
2022-12-14T22:03:54.158Z,100016.72
2022-12-14T22:06:17.815Z,100019.19
2022-12-14T22:08:41.497Z,100017.72
2022-12-14T22:11:07.130Z,100024.63
2022-12-14T22:13:31.399Z,100028.94
2022-12-14T22:15:55.310Z,100027.22
2022-12-14T22:18:18.987Z,100024.69
2022-12-14T22:20:42.660Z,100019.59
2022-12-14T22:23:06.306Z,100024.06
2022-12-14T22:25:29.926Z,100018.00
2022-12-14T22:27:55.075Z,100025.63
2022-12-14T22:30:19.167Z,100024.53
2022-12-14T22:32:43.226Z,100032.34
2022-12-14T22:35:09.628Z,100033.25
2022-12-14T22:37:33.322Z,100031.56
2022-12-14T22:39:57.014Z,100030.19
2022-12-14T22:42:20.689Z,100037.13
2022-12-14T22:44:45.866Z,100043.56
2022-12-14T22:47:09.549Z,100033.81
2022-12-14T22:49:33.185Z,100029.56
2022-12-14T22:51:56.881Z,100031.22
2022-12-14T22:54:25.431Z,100026.00
2022-12-14T22:56:54.080Z,100028.69
2022-12-14T22:59:22.248Z,100034.09
2022-12-14T23:01:49.730Z,100032.28
2022-12-14T23:04:15.437Z,100034.81
2022-12-14T23:06:39.462Z,100031.38
2022-12-14T23:09:20.550Z,100042.97
2022-12-14T23:12:01.421Z,100046.31
2022-12-14T23:14:42.332Z,100048.91
2022-12-14T23:17:25.872Z,100058.38
2022-12-14T23:20:06.757Z,100060.25
2022-12-14T23:22:49.847Z,100043.75
2022-12-14T23:25:30.801Z,100050.63
2022-12-14T23:28:11.772Z,100049.97
2022-12-14T23:30:52.874Z,100047.25
2022-12-14T23:33:35.237Z,100048.13
2022-12-14T23:36:20.080Z,100049.94
2022-12-14T23:39:00.825Z,100056.91
2022-12-14T23:41:42.025Z,100051.66
2022-12-14T23:44:23.079Z,100053.63
2022-12-14T23:47:04.125Z,100055.41
2022-12-14T23:49:46.740Z,100056.38
2022-12-14T23:52:27.621Z,100061.59
2022-12-14T23:55:08.481Z,100064.97
2022-12-14T23:57:49.681Z,100061.72
